sensor_id;sensor_type;location;lat;lon;timestamp;P1;durP1;ratioP1;P2;durP2;ratioP2
21761;SDS011;11203;50.870;20.682;2022-09-03T00:01:09;10.73;;;5.80;;
21761;SDS011;11203;50.870;20.682;2022-09-03T00:03:45;9.20;;;5.65;;
21761;SDS011;11203;50.870;20.682;2022-09-03T00:06:19;8.77;;;6.03;;
21761;SDS011;11203;50.870;20.682;2022-09-03T00:12:00;9.55;;;6.57;;
21761;SDS011;11203;50.870;20.682;2022-09-03T00:14:45;12.05;;;6.55;;
21761;SDS011;11203;50.870;20.682;2022-09-03T00:17:21;12.18;;;6.65;;
21761;SDS011;11203;50.870;20.682;2022-09-03T00:20:04;10.43;;;7.25;;
21761;SDS011;11203;50.870;20.682;2022-09-03T00:23:21;9.55;;;6.28;;
21761;SDS011;11203;50.870;20.682;2022-09-03T00:31:25;13.82;;;6.82;;
21761;SDS011;11203;50.870;20.682;2022-09-03T00:34:04;9.82;;;5.18;;
21761;SDS011;11203;50.870;20.682;2022-09-03T00:36:53;9.07;;;5.90;;
21761;SDS011;11203;50.870;20.682;2022-09-03T00:39:20;9.43;;;4.80;;
21761;SDS011;11203;50.870;20.682;2022-09-03T00:47:31;4.88;;;3.08;;
21761;SDS011;11203;50.870;20.682;2022-09-03T00:53:24;6.35;;;2.90;;
21761;SDS011;11203;50.870;20.682;2022-09-03T01:08:12;8.90;;;4.97;;
21761;SDS011;11203;50.870;20.682;2022-09-03T01:13:43;6.90;;;4.93;;
21761;SDS011;11203;50.870;20.682;2022-09-03T01:16:38;9.30;;;5.60;;
21761;SDS011;11203;50.870;20.682;2022-09-03T01:39:49;9.63;;;5.93;;
21761;SDS011;11203;50.870;20.682;2022-09-03T01:46:11;9.55;;;5.72;;
21761;SDS011;11203;50.870;20.682;2022-09-03T01:48:59;8.85;;;5.60;;
21761;SDS011;11203;50.870;20.682;2022-09-03T01:57:54;8.05;;;5.47;;
21761;SDS011;11203;50.870;20.682;2022-09-03T02:00:39;7.72;;;5.40;;
21761;SDS011;11203;50.870;20.682;2022-09-03T02:03:08;8.63;;;5.03;;
21761;SDS011;11203;50.870;20.682;2022-09-03T02:05:36;8.15;;;5.13;;
21761;SDS011;11203;50.870;20.682;2022-09-03T02:08:04;7.22;;;5.32;;
21761;SDS011;11203;50.870;20.682;2022-09-03T02:15:42;11.15;;;5.95;;
21761;SDS011;11203;50.870;20.682;2022-09-03T02:18:18;12.90;;;7.25;;
21761;SDS011;11203;50.870;20.682;2022-09-03T02:20:55;12.13;;;6.13;;
21761;SDS011;11203;50.870;20.682;2022-09-03T02:23:23;12.77;;;6.55;;
21761;SDS011;11203;50.870;20.682;2022-09-03T02:25:51;9.55;;;5.78;;
21761;SDS011;11203;50.870;20.682;2022-09-03T02:28:21;16.83;;;8.50;;
21761;SDS011;11203;50.870;20.682;2022-09-03T02:30:50;13.10;;;7.28;;
21761;SDS011;11203;50.870;20.682;2022-09-03T02:33:16;13.43;;;6.00;;
21761;SDS011;11203;50.870;20.682;2022-09-03T02:35:43;9.40;;;4.93;;
21761;SDS011;11203;50.870;20.682;2022-09-03T02:38:14;12.98;;;6.72;;
21761;SDS011;11203;50.870;20.682;2022-09-03T02:40:44;10.45;;;5.95;;
21761;SDS011;11203;50.870;20.682;2022-09-03T02:43:15;11.80;;;7.80;;
21761;SDS011;11203;50.870;20.682;2022-09-03T02:45:49;8.10;;;5.90;;
21761;SDS011;11203;50.870;20.682;2022-09-03T02:48:19;11.63;;;5.90;;
21761;SDS011;11203;50.870;20.682;2022-09-03T02:50:51;10.30;;;5.60;;
21761;SDS011;11203;50.870;20.682;2022-09-03T02:53:17;10.20;;;7.18;;
21761;SDS011;11203;50.870;20.682;2022-09-03T02:55:43;9.80;;;7.22;;
21761;SDS011;11203;50.870;20.682;2022-09-03T02:58:10;13.00;;;8.95;;
21761;SDS011;11203;50.870;20.682;2022-09-03T03:00:36;10.10;;;7.30;;
21761;SDS011;11203;50.870;20.682;2022-09-03T03:03:03;13.25;;;7.57;;
21761;SDS011;11203;50.870;20.682;2022-09-03T03:08:17;21.88;;;13.82;;
21761;SDS011;11203;50.870;20.682;2022-09-03T03:10:56;15.55;;;10.35;;
21761;SDS011;11203;50.870;20.682;2022-09-03T03:13:28;14.10;;;8.55;;
21761;SDS011;11203;50.870;20.682;2022-09-03T03:15:59;13.77;;;9.13;;
21761;SDS011;11203;50.870;20.682;2022-09-03T03:18:30;13.13;;;6.40;;
21761;SDS011;11203;50.870;20.682;2022-09-03T03:21:02;9.95;;;6.28;;
21761;SDS011;11203;50.870;20.682;2022-09-03T03:23:39;11.68;;;6.78;;
21761;SDS011;11203;50.870;20.682;2022-09-03T03:26:06;12.20;;;6.68;;
21761;SDS011;11203;50.870;20.682;2022-09-03T03:28:38;10.65;;;5.85;;
21761;SDS011;11203;50.870;20.682;2022-09-03T03:31:09;9.18;;;6.10;;
21761;SDS011;11203;50.870;20.682;2022-09-03T03:33:39;11.50;;;6.80;;
21761;SDS011;11203;50.870;20.682;2022-09-03T03:36:09;11.18;;;6.85;;
21761;SDS011;11203;50.870;20.682;2022-09-03T03:38:38;12.32;;;6.30;;
21761;SDS011;11203;50.870;20.682;2022-09-03T03:41:07;13.60;;;7.32;;
21761;SDS011;11203;50.870;20.682;2022-09-03T03:43:38;12.98;;;7.47;;
21761;SDS011;11203;50.870;20.682;2022-09-03T03:46:05;12.07;;;5.80;;
21761;SDS011;11203;50.870;20.682;2022-09-03T03:48:31;14.63;;;7.43;;
21761;SDS011;11203;50.870;20.682;2022-09-03T03:51:02;16.08;;;6.75;;
21761;SDS011;11203;50.870;20.682;2022-09-03T03:53:32;11.02;;;6.28;;
21761;SDS011;11203;50.870;20.682;2022-09-03T03:56:00;9.77;;;5.78;;
21761;SDS011;11203;50.870;20.682;2022-09-03T03:58:30;11.00;;;5.95;;
21761;SDS011;11203;50.870;20.682;2022-09-03T04:01:06;10.20;;;6.20;;
21761;SDS011;11203;50.870;20.682;2022-09-03T04:03:38;12.32;;;6.18;;
21761;SDS011;11203;50.870;20.682;2022-09-03T04:06:05;12.60;;;6.22;;
21761;SDS011;11203;50.870;20.682;2022-09-03T04:08:35;15.85;;;7.50;;
21761;SDS011;11203;50.870;20.682;2022-09-03T04:11:05;13.00;;;8.70;;
21761;SDS011;11203;50.870;20.682;2022-09-03T04:13:35;13.02;;;7.97;;
21761;SDS011;11203;50.870;20.682;2022-09-03T04:16:04;15.93;;;8.60;;
21761;SDS011;11203;50.870;20.682;2022-09-03T04:18:36;13.77;;;7.60;;
21761;SDS011;11203;50.870;20.682;2022-09-03T04:21:07;10.15;;;6.90;;
21761;SDS011;11203;50.870;20.682;2022-09-03T04:23:40;13.32;;;7.53;;
21761;SDS011;11203;50.870;20.682;2022-09-03T04:26:09;13.30;;;6.85;;
21761;SDS011;11203;50.870;20.682;2022-09-03T04:28:38;12.40;;;7.07;;
21761;SDS011;11203;50.870;20.682;2022-09-03T04:31:07;11.95;;;7.13;;
21761;SDS011;11203;50.870;20.682;2022-09-03T04:33:35;13.65;;;7.63;;
21761;SDS011;11203;50.870;20.682;2022-09-03T04:36:11;10.13;;;6.88;;
21761;SDS011;11203;50.870;20.682;2022-09-03T04:38:44;13.65;;;7.13;;
21761;SDS011;11203;50.870;20.682;2022-09-03T04:41:22;12.18;;;7.35;;
21761;SDS011;11203;50.870;20.682;2022-09-03T04:43:51;11.68;;;7.20;;
21761;SDS011;11203;50.870;20.682;2022-09-03T04:46:19;12.68;;;7.15;;
21761;SDS011;11203;50.870;20.682;2022-09-03T04:48:51;12.48;;;7.18;;
21761;SDS011;11203;50.870;20.682;2022-09-03T04:51:23;11.20;;;7.00;;
21761;SDS011;11203;50.870;20.682;2022-09-03T04:53:55;10.10;;;6.72;;
21761;SDS011;11203;50.870;20.682;2022-09-03T04:56:25;14.05;;;7.13;;
21761;SDS011;11203;50.870;20.682;2022-09-03T04:58:58;15.00;;;7.65;;
21761;SDS011;11203;50.870;20.682;2022-09-03T05:01:31;14.02;;;7.50;;
21761;SDS011;11203;50.870;20.682;2022-09-03T05:03:58;12.43;;;7.32;;
21761;SDS011;11203;50.870;20.682;2022-09-03T05:06:26;14.50;;;7.22;;
21761;SDS011;11203;50.870;20.682;2022-09-03T05:08:54;13.75;;;7.28;;
21761;SDS011;11203;50.870;20.682;2022-09-03T05:11:22;9.15;;;5.88;;
21761;SDS011;11203;50.870;20.682;2022-09-03T05:13:51;9.75;;;6.57;;
21761;SDS011;11203;50.870;20.682;2022-09-03T05:16:20;11.82;;;6.82;;
21761;SDS011;11203;50.870;20.682;2022-09-03T05:18:50;12.55;;;7.00;;
21761;SDS011;11203;50.870;20.682;2022-09-03T05:21:19;11.45;;;7.28;;
21761;SDS011;11203;50.870;20.682;2022-09-03T05:23:46;11.48;;;7.40;;
21761;SDS011;11203;50.870;20.682;2022-09-03T05:26:18;11.95;;;7.55;;
21761;SDS011;11203;50.870;20.682;2022-09-03T05:28:51;13.75;;;7.35;;
21761;SDS011;11203;50.870;20.682;2022-09-03T05:31:20;12.13;;;6.95;;
21761;SDS011;11203;50.870;20.682;2022-09-03T05:33:53;14.00;;;7.38;;
21761;SDS011;11203;50.870;20.682;2022-09-03T05:36:23;14.50;;;6.95;;
21761;SDS011;11203;50.870;20.682;2022-09-03T05:38:51;12.57;;;6.45;;
21761;SDS011;11203;50.870;20.682;2022-09-03T05:41:18;10.35;;;6.35;;
21761;SDS011;11203;50.870;20.682;2022-09-03T05:43:46;12.32;;;6.55;;
21761;SDS011;11203;50.870;20.682;2022-09-03T05:46:21;10.00;;;6.40;;
21761;SDS011;11203;50.870;20.682;2022-09-03T05:48:54;12.85;;;7.13;;
21761;SDS011;11203;50.870;20.682;2022-09-03T05:51:20;10.13;;;6.70;;
21761;SDS011;11203;50.870;20.682;2022-09-03T05:53:47;12.02;;;6.07;;
21761;SDS011;11203;50.870;20.682;2022-09-03T05:56:15;8.93;;;5.93;;
21761;SDS011;11203;50.870;20.682;2022-09-03T05:58:45;12.68;;;5.70;;
21761;SDS011;11203;50.870;20.682;2022-09-03T06:01:15;10.02;;;6.07;;
21761;SDS011;11203;50.870;20.682;2022-09-03T06:03:46;11.32;;;5.88;;
21761;SDS011;11203;50.870;20.682;2022-09-03T06:06:19;9.77;;;5.80;;
21761;SDS011;11203;50.870;20.682;2022-09-03T06:08:57;10.40;;;5.82;;
21761;SDS011;11203;50.870;20.682;2022-09-03T06:11:26;12.48;;;5.88;;
21761;SDS011;11203;50.870;20.682;2022-09-03T06:13:54;10.18;;;5.10;;
21761;SDS011;11203;50.870;20.682;2022-09-03T06:16:26;9.75;;;5.55;;
21761;SDS011;11203;50.870;20.682;2022-09-03T06:18:54;12.18;;;5.38;;
21761;SDS011;11203;50.870;20.682;2022-09-03T06:21:21;10.32;;;5.75;;
21761;SDS011;11203;50.870;20.682;2022-09-03T06:23:50;17.45;;;10.27;;
21761;SDS011;11203;50.870;20.682;2022-09-03T06:26:20;11.88;;;6.25;;
21761;SDS011;11203;50.870;20.682;2022-09-03T06:28:48;11.85;;;7.72;;
21761;SDS011;11203;50.870;20.682;2022-09-03T06:31:15;8.75;;;6.05;;
21761;SDS011;11203;50.870;20.682;2022-09-03T06:33:43;10.80;;;6.40;;
21761;SDS011;11203;50.870;20.682;2022-09-03T06:36:12;12.98;;;6.15;;
21761;SDS011;11203;50.870;20.682;2022-09-03T06:38:41;9.85;;;5.88;;
21761;SDS011;11203;50.870;20.682;2022-09-03T06:41:13;10.82;;;7.75;;
21761;SDS011;11203;50.870;20.682;2022-09-03T06:43:46;9.10;;;5.57;;
21761;SDS011;11203;50.870;20.682;2022-09-03T06:46:14;11.10;;;6.10;;
21761;SDS011;11203;50.870;20.682;2022-09-03T06:48:43;9.57;;;6.15;;
21761;SDS011;11203;50.870;20.682;2022-09-03T06:51:14;11.43;;;6.32;;
21761;SDS011;11203;50.870;20.682;2022-09-03T06:53:43;12.68;;;7.28;;
21761;SDS011;11203;50.870;20.682;2022-09-03T06:56:13;10.05;;;6.43;;
21761;SDS011;11203;50.870;20.682;2022-09-03T06:58:51;11.07;;;6.28;;
21761;SDS011;11203;50.870;20.682;2022-09-03T07:01:23;10.48;;;6.07;;
21761;SDS011;11203;50.870;20.682;2022-09-03T07:03:58;15.38;;;6.18;;
21761;SDS011;11203;50.870;20.682;2022-09-03T07:06:31;10.45;;;6.13;;
21761;SDS011;11203;50.870;20.682;2022-09-03T07:09:01;11.85;;;7.53;;
21761;SDS011;11203;50.870;20.682;2022-09-03T07:11:29;12.23;;;6.22;;
21761;SDS011;11203;50.870;20.682;2022-09-03T07:14:00;10.75;;;6.22;;
21761;SDS011;11203;50.870;20.682;2022-09-03T07:16:32;12.23;;;6.78;;
21761;SDS011;11203;50.870;20.682;2022-09-03T07:19:02;9.50;;;5.97;;
21761;SDS011;11203;50.870;20.682;2022-09-03T07:21:31;16.13;;;6.82;;
21761;SDS011;11203;50.870;20.682;2022-09-03T07:24:00;10.15;;;5.93;;
21761;SDS011;11203;50.870;20.682;2022-09-03T07:26:29;11.90;;;6.22;;
21761;SDS011;11203;50.870;20.682;2022-09-03T07:29:02;9.82;;;5.85;;
21761;SDS011;11203;50.870;20.682;2022-09-03T07:31:36;10.40;;;5.60;;
21761;SDS011;11203;50.870;20.682;2022-09-03T07:34:05;9.63;;;5.97;;
21761;SDS011;11203;50.870;20.682;2022-09-03T07:36:36;9.77;;;5.40;;
21761;SDS011;11203;50.870;20.682;2022-09-03T07:39:07;11.27;;;5.43;;
21761;SDS011;11203;50.870;20.682;2022-09-03T07:41:35;7.78;;;5.65;;
21761;SDS011;11203;50.870;20.682;2022-09-03T07:44:02;12.57;;;7.47;;
21761;SDS011;11203;50.870;20.682;2022-09-03T07:46:30;15.38;;;6.68;;
21761;SDS011;11203;50.870;20.682;2022-09-03T07:48:59;10.05;;;5.55;;
21761;SDS011;11203;50.870;20.682;2022-09-03T07:51:30;11.88;;;7.20;;
21761;SDS011;11203;50.870;20.682;2022-09-03T07:54:00;12.02;;;5.03;;
21761;SDS011;11203;50.870;20.682;2022-09-03T07:56:29;8.77;;;4.70;;
21761;SDS011;11203;50.870;20.682;2022-09-03T07:58:59;8.02;;;5.97;;
21761;SDS011;11203;50.870;20.682;2022-09-03T08:01:26;9.63;;;5.28;;
21761;SDS011;11203;50.870;20.682;2022-09-03T08:03:55;7.63;;;5.05;;
21761;SDS011;11203;50.870;20.682;2022-09-03T08:06:25;10.05;;;5.72;;
21761;SDS011;11203;50.870;20.682;2022-09-03T08:08:54;7.63;;;5.95;;
21761;SDS011;11203;50.870;20.682;2022-09-03T08:11:26;8.13;;;5.05;;
21761;SDS011;11203;50.870;20.682;2022-09-03T08:13:54;14.07;;;6.30;;
21761;SDS011;11203;50.870;20.682;2022-09-03T08:16:31;9.55;;;6.40;;
21761;SDS011;11203;50.870;20.682;2022-09-03T08:19:03;11.68;;;6.43;;
21761;SDS011;11203;50.870;20.682;2022-09-03T08:21:30;9.27;;;4.97;;
21761;SDS011;11203;50.870;20.682;2022-09-03T08:23:56;6.95;;;5.32;;
21761;SDS011;11203;50.870;20.682;2022-09-03T08:26:27;7.55;;;5.43;;
21761;SDS011;11203;50.870;20.682;2022-09-03T08:28:55;9.73;;;5.40;;
21761;SDS011;11203;50.870;20.682;2022-09-03T08:31:22;10.98;;;4.97;;
21761;SDS011;11203;50.870;20.682;2022-09-03T08:33:50;6.53;;;5.10;;
21761;SDS011;11203;50.870;20.682;2022-09-03T08:36:19;9.15;;;5.03;;
21761;SDS011;11203;50.870;20.682;2022-09-03T08:38:49;7.53;;;5.10;;
21761;SDS011;11203;50.870;20.682;2022-09-03T08:46:59;7.88;;;5.20;;
21761;SDS011;11203;50.870;20.682;2022-09-03T08:49:55;9.93;;;6.00;;
21761;SDS011;11203;50.870;20.682;2022-09-03T08:52:31;7.90;;;5.78;;
21761;SDS011;11203;50.870;20.682;2022-09-03T08:58:03;9.45;;;5.18;;
21761;SDS011;11203;50.870;20.682;2022-09-03T09:03:32;8.60;;;6.22;;
21761;SDS011;11203;50.870;20.682;2022-09-03T09:20:19;9.43;;;5.97;;
21761;SDS011;11203;50.870;20.682;2022-09-03T09:23:03;9.32;;;5.30;;
21761;SDS011;11203;50.870;20.682;2022-09-03T09:25:32;9.50;;;4.80;;
21761;SDS011;11203;50.870;20.682;2022-09-03T09:30:42;9.98;;;6.05;;
21761;SDS011;11203;50.870;20.682;2022-09-03T09:33:12;8.30;;;4.55;;
21761;SDS011;11203;50.870;20.682;2022-09-03T09:35:42;9.10;;;4.70;;
21761;SDS011;11203;50.870;20.682;2022-09-03T09:38:09;6.68;;;4.32;;
21761;SDS011;11203;50.870;20.682;2022-09-03T09:40:37;5.28;;;4.07;;
21761;SDS011;11203;50.870;20.682;2022-09-03T09:43:12;8.60;;;4.38;;
21761;SDS011;11203;50.870;20.682;2022-09-03T09:45:42;4.63;;;3.97;;
21761;SDS011;11203;50.870;20.682;2022-09-03T09:48:26;5.97;;;4.15;;
21761;SDS011;11203;50.870;20.682;2022-09-03T09:51:09;6.68;;;4.20;;
21761;SDS011;11203;50.870;20.682;2022-09-03T09:53:37;5.68;;;4.07;;
21761;SDS011;11203;50.870;20.682;2022-09-03T09:56:06;6.40;;;4.50;;
21761;SDS011;11203;50.870;20.682;2022-09-03T09:58:33;6.28;;;4.72;;
21761;SDS011;11203;50.870;20.682;2022-09-03T10:01:04;8.57;;;4.85;;
21761;SDS011;11203;50.870;20.682;2022-09-03T10:03:39;5.93;;;4.15;;
21761;SDS011;11203;50.870;20.682;2022-09-03T10:06:15;7.85;;;3.83;;
21761;SDS011;11203;50.870;20.682;2022-09-03T10:09:07;6.22;;;4.05;;
21761;SDS011;11203;50.870;20.682;2022-09-03T10:11:41;5.82;;;4.03;;
21761;SDS011;11203;50.870;20.682;2022-09-03T10:14:52;5.43;;;3.90;;
21761;SDS011;11203;50.870;20.682;2022-09-03T10:28:32;6.38;;;4.10;;
21761;SDS011;11203;50.870;20.682;2022-09-03T10:34:34;5.82;;;4.45;;
21761;SDS011;11203;50.870;20.682;2022-09-03T10:43:02;7.35;;;4.47;;
21761;SDS011;11203;50.870;20.682;2022-09-03T10:46:01;6.25;;;4.38;;
21761;SDS011;11203;50.870;20.682;2022-09-03T10:51:46;8.98;;;5.25;;
21761;SDS011;11203;50.870;20.682;2022-09-03T10:54:54;8.23;;;4.40;;
21761;SDS011;11203;50.870;20.682;2022-09-03T10:57:35;7.35;;;5.13;;
21761;SDS011;11203;50.870;20.682;2022-09-03T11:00:11;8.65;;;5.70;;
21761;SDS011;11203;50.870;20.682;2022-09-03T11:06:03;8.50;;;4.78;;
21761;SDS011;11203;50.870;20.682;2022-09-03T11:12:11;6.53;;;3.95;;
21761;SDS011;11203;50.870;20.682;2022-09-03T11:14:58;12.38;;;6.82;;
21761;SDS011;11203;50.870;20.682;2022-09-03T11:17:47;7.97;;;5.35;;
21761;SDS011;11203;50.870;20.682;2022-09-03T11:20:22;6.43;;;4.05;;
21761;SDS011;11203;50.870;20.682;2022-09-03T11:22:52;7.30;;;3.65;;
21761;SDS011;11203;50.870;20.682;2022-09-03T11:25:24;6.05;;;3.92;;
21761;SDS011;11203;50.870;20.682;2022-09-03T11:33:24;8.05;;;3.70;;
21761;SDS011;11203;50.870;20.682;2022-09-03T11:35:59;6.95;;;4.28;;
21761;SDS011;11203;50.870;20.682;2022-09-03T11:38:27;6.68;;;3.67;;
21761;SDS011;11203;50.870;20.682;2022-09-03T11:40:57;6.03;;;3.97;;
21761;SDS011;11203;50.870;20.682;2022-09-03T11:48:43;14.57;;;4.95;;
21761;SDS011;11203;50.870;20.682;2022-09-03T11:51:35;5.85;;;4.05;;
21761;SDS011;11203;50.870;20.682;2022-09-03T11:54:06;16.90;;;5.72;;
21761;SDS011;11203;50.870;20.682;2022-09-03T11:56:50;14.23;;;5.10;;
21761;SDS011;11203;50.870;20.682;2022-09-03T11:59:52;10.80;;;4.20;;
21761;SDS011;11203;50.870;20.682;2022-09-03T12:02:24;13.63;;;4.40;;
21761;SDS011;11203;50.870;20.682;2022-09-03T12:10:24;23.50;;;6.47;;
21761;SDS011;11203;50.870;20.682;2022-09-03T12:16:15;15.27;;;5.80;;
21761;SDS011;11203;50.870;20.682;2022-09-03T12:18:53;11.95;;;4.97;;
21761;SDS011;11203;50.870;20.682;2022-09-03T12:21:25;6.88;;;4.10;;
21761;SDS011;11203;50.870;20.682;2022-09-03T12:23:51;18.85;;;5.82;;
21761;SDS011;11203;50.870;20.682;2022-09-03T12:26:20;6.60;;;3.95;;
21761;SDS011;11203;50.870;20.682;2022-09-03T12:28:49;7.75;;;4.22;;
21761;SDS011;11203;50.870;20.682;2022-09-03T12:31:28;5.18;;;4.00;;
21761;SDS011;11203;50.870;20.682;2022-09-03T12:39:17;14.75;;;5.80;;
21761;SDS011;11203;50.870;20.682;2022-09-03T12:42:00;9.55;;;4.35;;
21761;SDS011;11203;50.870;20.682;2022-09-03T12:44:29;9.95;;;4.55;;
21761;SDS011;11203;50.870;20.682;2022-09-03T12:47:12;10.50;;;4.25;;
21761;SDS011;11203;50.870;20.682;2022-09-03T12:49:44;8.35;;;4.05;;
21761;SDS011;11203;50.870;20.682;2022-09-03T12:52:20;6.05;;;3.80;;
21761;SDS011;11203;50.870;20.682;2022-09-03T12:54:58;8.68;;;4.28;;
21761;SDS011;11203;50.870;20.682;2022-09-03T12:57:48;6.22;;;3.47;;
21761;SDS011;11203;50.870;20.682;2022-09-03T13:00:25;7.60;;;4.07;;
21761;SDS011;11203;50.870;20.682;2022-09-03T13:03:42;9.30;;;3.90;;
21761;SDS011;11203;50.870;20.682;2022-09-03T13:06:20;11.05;;;4.03;;
21761;SDS011;11203;50.870;20.682;2022-09-03T13:08:50;8.27;;;4.07;;
21761;SDS011;11203;50.870;20.682;2022-09-03T13:11:25;7.72;;;3.63;;
21761;SDS011;11203;50.870;20.682;2022-09-03T13:13:54;6.78;;;4.10;;
21761;SDS011;11203;50.870;20.682;2022-09-03T13:21:53;8.80;;;4.45;;
21761;SDS011;11203;50.870;20.682;2022-09-03T13:27:32;6.10;;;3.85;;
21761;SDS011;11203;50.870;20.682;2022-09-03T13:30:19;4.20;;;3.53;;
21761;SDS011;11203;50.870;20.682;2022-09-03T13:38:42;6.72;;;4.25;;
21761;SDS011;11203;50.870;20.682;2022-09-03T13:41:33;5.90;;;4.50;;
21761;SDS011;11203;50.870;20.682;2022-09-03T13:44:08;4.97;;;3.78;;
21761;SDS011;11203;50.870;20.682;2022-09-03T13:46:54;17.65;;;4.13;;
21761;SDS011;11203;50.870;20.682;2022-09-03T13:50:07;4.80;;;3.70;;
21761;SDS011;11203;50.870;20.682;2022-09-03T13:53:00;5.95;;;4.10;;
21761;SDS011;11203;50.870;20.682;2022-09-03T13:55:58;7.10;;;3.85;;
21761;SDS011;11203;50.870;20.682;2022-09-03T13:58:45;8.35;;;5.10;;
21761;SDS011;11203;50.870;20.682;2022-09-03T14:04:00;6.30;;;4.53;;
21761;SDS011;11203;50.870;20.682;2022-09-03T14:12:09;5.43;;;4.00;;
21761;SDS011;11203;50.870;20.682;2022-09-03T14:21:00;6.32;;;5.38;;
21761;SDS011;11203;50.870;20.682;2022-09-03T14:23:45;8.50;;;4.80;;
21761;SDS011;11203;50.870;20.682;2022-09-03T14:26:34;5.20;;;4.70;;
21761;SDS011;11203;50.870;20.682;2022-09-03T14:29:04;5.20;;;4.40;;
21761;SDS011;11203;50.870;20.682;2022-09-03T14:38:00;6.97;;;4.35;;
21761;SDS011;11203;50.870;20.682;2022-09-03T14:40:52;6.95;;;5.03;;
21761;SDS011;11203;50.870;20.682;2022-09-03T15:00:33;9.25;;;5.05;;
21761;SDS011;11203;50.870;20.682;2022-09-03T15:09:41;8.82;;;6.60;;
21761;SDS011;11203;50.870;20.682;2022-09-03T15:12:36;14.93;;;7.60;;
21761;SDS011;11203;50.870;20.682;2022-09-03T15:18:02;12.40;;;5.93;;
21761;SDS011;11203;50.870;20.682;2022-09-03T15:30:10;7.63;;;5.00;;
21761;SDS011;11203;50.870;20.682;2022-09-03T15:32:45;7.50;;;5.35;;
21761;SDS011;11203;50.870;20.682;2022-09-03T15:40:57;5.45;;;4.88;;
21761;SDS011;11203;50.870;20.682;2022-09-03T15:43:31;6.53;;;5.10;;
21761;SDS011;11203;50.870;20.682;2022-09-03T15:45:59;7.35;;;5.57;;
21761;SDS011;11203;50.870;20.682;2022-09-03T15:51:29;9.38;;;5.88;;
21761;SDS011;11203;50.870;20.682;2022-09-03T15:54:05;9.20;;;7.50;;
21761;SDS011;11203;50.870;20.682;2022-09-03T15:56:54;10.35;;;5.90;;
21761;SDS011;11203;50.870;20.682;2022-09-03T16:00:15;20.02;;;5.53;;
21761;SDS011;11203;50.870;20.682;2022-09-03T16:05:24;15.38;;;10.00;;
21761;SDS011;11203;50.870;20.682;2022-09-03T16:13:42;62.53;;;54.05;;
21761;SDS011;11203;50.870;20.682;2022-09-03T16:19:33;10.60;;;7.38;;
21761;SDS011;11203;50.870;20.682;2022-09-03T16:30:25;15.60;;;12.43;;
21761;SDS011;11203;50.870;20.682;2022-09-03T16:38:49;13.95;;;11.65;;
21761;SDS011;11203;50.870;20.682;2022-09-03T16:48:22;24.17;;;16.58;;
21761;SDS011;11203;50.870;20.682;2022-09-03T16:51:09;22.50;;;12.95;;
21761;SDS011;11203;50.870;20.682;2022-09-03T16:56:48;25.13;;;15.32;;
21761;SDS011;11203;50.870;20.682;2022-09-03T16:59:24;13.05;;;8.85;;
21761;SDS011;11203;50.870;20.682;2022-09-03T17:08:27;9.88;;;8.77;;
21761;SDS011;11203;50.870;20.682;2022-09-03T17:19:32;511.88;;;201.65;;
21761;SDS011;11203;50.870;20.682;2022-09-03T17:34:35;77.40;;;42.63;;
21761;SDS011;11203;50.870;20.682;2022-09-03T17:46:25;120.00;;;48.95;;
21761;SDS011;11203;50.870;20.682;2022-09-03T17:49:17;125.85;;;51.45;;
21761;SDS011;11203;50.870;20.682;2022-09-03T17:51:58;285.00;;;104.38;;
21761;SDS011;11203;50.870;20.682;2022-09-03T17:54:41;375.55;;;130.30;;
21761;SDS011;11203;50.870;20.682;2022-09-03T17:57:14;456.35;;;149.05;;
21761;SDS011;11203;50.870;20.682;2022-09-03T18:00:33;289.60;;;111.20;;
21761;SDS011;11203;50.870;20.682;2022-09-03T18:06:11;528.80;;;152.63;;
21761;SDS011;11203;50.870;20.682;2022-09-03T18:12:08;530.28;;;153.85;;
21761;SDS011;11203;50.870;20.682;2022-09-03T18:14:55;210.55;;;79.13;;
21761;SDS011;11203;50.870;20.682;2022-09-03T18:17:32;246.85;;;102.88;;
21761;SDS011;11203;50.870;20.682;2022-09-03T18:20:14;96.80;;;42.63;;
21761;SDS011;11203;50.870;20.682;2022-09-03T18:23:15;70.50;;;39.50;;
21761;SDS011;11203;50.870;20.682;2022-09-03T18:26:14;54.22;;;35.08;;
21761;SDS011;11203;50.870;20.682;2022-09-03T18:29:14;63.65;;;37.63;;
21761;SDS011;11203;50.870;20.682;2022-09-03T18:32:07;43.40;;;30.23;;
21761;SDS011;11203;50.870;20.682;2022-09-03T18:34:51;50.65;;;32.38;;
21761;SDS011;11203;50.870;20.682;2022-09-03T18:37:36;50.95;;;32.00;;
21761;SDS011;11203;50.870;20.682;2022-09-03T18:40:25;41.53;;;25.58;;
21761;SDS011;11203;50.870;20.682;2022-09-03T18:43:34;47.17;;;33.33;;
21761;SDS011;11203;50.870;20.682;2022-09-03T18:49:40;41.97;;;26.88;;
21761;SDS011;11203;50.870;20.682;2022-09-03T19:02:26;35.40;;;22.48;;
21761;SDS011;11203;50.870;20.682;2022-09-03T19:12:19;51.63;;;31.45;;
21761;SDS011;11203;50.870;20.682;2022-09-03T19:15:51;61.80;;;37.00;;
21761;SDS011;11203;50.870;20.682;2022-09-03T19:19:05;57.88;;;33.83;;
21761;SDS011;11203;50.870;20.682;2022-09-03T19:22:26;52.47;;;32.25;;
21761;SDS011;11203;50.870;20.682;2022-09-03T19:25:19;51.33;;;32.60;;
21761;SDS011;11203;50.870;20.682;2022-09-03T19:41:25;38.88;;;25.92;;
21761;SDS011;11203;50.870;20.682;2022-09-03T19:50:55;51.63;;;38.72;;
21761;SDS011;11203;50.870;20.682;2022-09-03T19:53:53;36.50;;;32.13;;
21761;SDS011;11203;50.870;20.682;2022-09-03T19:56:39;31.42;;;24.83;;
21761;SDS011;11203;50.870;20.682;2022-09-03T19:59:25;32.45;;;26.05;;
21761;SDS011;11203;50.870;20.682;2022-09-03T20:02:18;26.52;;;20.70;;
21761;SDS011;11203;50.870;20.682;2022-09-03T20:05:02;23.90;;;17.02;;
21761;SDS011;11203;50.870;20.682;2022-09-03T20:07:53;26.83;;;17.33;;
21761;SDS011;11203;50.870;20.682;2022-09-03T20:10:40;27.10;;;16.83;;
21761;SDS011;11203;50.870;20.682;2022-09-03T20:13:10;24.13;;;18.80;;
21761;SDS011;11203;50.870;20.682;2022-09-03T20:16:00;28.00;;;18.15;;
21761;SDS011;11203;50.870;20.682;2022-09-03T20:24:11;23.08;;;15.98;;
21761;SDS011;11203;50.870;20.682;2022-09-03T20:27:13;25.52;;;15.93;;
21761;SDS011;11203;50.870;20.682;2022-09-03T20:38:06;23.60;;;15.07;;
21761;SDS011;11203;50.870;20.682;2022-09-03T20:49:54;24.92;;;16.98;;
21761;SDS011;11203;50.870;20.682;2022-09-03T20:56:13;25.73;;;18.73;;
21761;SDS011;11203;50.870;20.682;2022-09-03T21:01:36;40.78;;;25.92;;
21761;SDS011;11203;50.870;20.682;2022-09-03T21:04:31;35.00;;;23.20;;
21761;SDS011;11203;50.870;20.682;2022-09-03T21:10:04;38.28;;;25.13;;
21761;SDS011;11203;50.870;20.682;2022-09-03T21:12:46;34.28;;;22.58;;
21761;SDS011;11203;50.870;20.682;2022-09-03T21:18:33;34.30;;;21.42;;
21761;SDS011;11203;50.870;20.682;2022-09-03T21:21:37;28.58;;;20.25;;
21761;SDS011;11203;50.870;20.682;2022-09-03T21:26:55;32.00;;;20.85;;
21761;SDS011;11203;50.870;20.682;2022-09-03T21:29:42;23.05;;;17.55;;
21761;SDS011;11203;50.870;20.682;2022-09-03T21:34:54;24.30;;;16.58;;
21761;SDS011;11203;50.870;20.682;2022-09-03T21:38:35;26.35;;;17.40;;
21761;SDS011;11203;50.870;20.682;2022-09-03T21:40:54;23.10;;;16.92;;
21761;SDS011;11203;50.870;20.682;2022-09-03T21:46:56;24.83;;;17.80;;
21761;SDS011;11203;50.870;20.682;2022-09-03T21:49:34;24.88;;;17.55;;
21761;SDS011;11203;50.870;20.682;2022-09-03T21:52:18;21.38;;;15.43;;
21761;SDS011;11203;50.870;20.682;2022-09-03T21:54:52;22.67;;;14.73;;